Latest Weather Observations for Busselton Jetty

IDW60801

Issued at 9:34 am WST Saturday 25 March 2017 (issued every 30 minutes, with the page automatically refreshed every 10 minutes)

About weather observations | Map of weather stations | Latest weather observations for WA | Other Formats
Station Details ID: 009937 Name: BUSSELTON JETTY Lat: -33.63 Lon: 115.34 Height: 3.0 m
Data from the previous 72 hours. | See also: Recent months at Busselton Jetty
Date/Time
WST
Temp
°C
App
Temp
°C
Dew
Point
°C
Rel
Hum
%
Delta-T
°C
Wind Press
QNH
hPa
Press
MSL
hPa
Rain since
9am
mm
Dir  Spd
km/h
Gust
km/h
Spd
kts
Gust
kts
25/09:30am - - - - - N 9 13 5 7 - - -
25/09:00am - - - - - NE 15 19 8 10 - - -
25/08:30am - - - - - ENE 19 26 10 14 - - -
25/08:00am - - - - - ENE 17 22 9 12 - - -
25/07:30am - - - - - E 19 26 10 14 - - -
25/07:00am - - - - - ESE 15 20 8 11 - - -
25/06:30am - - - - - ESE 15 19 8 10 - - -
25/06:00am - - - - - SE 15 19 8 10 - - -
25/05:30am - - - - - SE 15 19 8 10 - - -
25/05:00am - - - - - SE 15 19 8 10 - - -
25/04:30am - - - - - SSE 15 19 8 10 - - -
25/04:00am - - - - - SSE 17 19 9 10 - - -
25/03:30am - - - - - SSE 15 19 8 10 - - -
25/03:00am - - - - - SE 15 19 8 10 - - -
25/02:30am - - - - - SE 17 20 9 11 - - -
25/02:00am - - - - - SE 15 17 8 9 - - -
25/01:30am - - - - - SE 13 17 7 9 - - -
25/01:00am - - - - - SSE 11 13 6 7 - - -
25/12:30am - - - - - S 13 17 7 9 - - -
25/12:00am - - - - - S 15 17 8 9 - - -
 
Date/Time
WST
Temp
°C
App
Temp
°C
Dew
Point
°C
Rel
Hum
%
Delta-T
°C
Wind Press
QNH
hPa
Press
MSL
hPa
Rain since
9am
mm
Dir  Spd
km/h
Gust
km/h
Spd
kts
Gust
kts
24/11:30pm - - - - - S 17 19 9 10 - - -
24/11:00pm - - - - - SSE 17 22 9 12 - - -
24/10:30pm - - - - - SSE 17 20 9 11 - - -
24/10:00pm - - - - - SSE 19 26 10 14 - - -
24/09:30pm - - - - - SSE 20 26 11 14 - - -
24/09:00pm - - - - - SSE 26 35 14 19 - - -
24/08:30pm - - - - - SSE 26 37 14 20 - - -
24/08:00pm - - - - - S 26 33 14 18 - - -
24/07:30pm - - - - - SSE 28 32 15 17 - - -
24/07:00pm - - - - - S 30 37 16 20 - - -
24/06:30pm - - - - - S 30 37 16 20 - - -
24/06:00pm - - - - - S 28 33 15 18 - - -
24/05:30pm - - - - - S 30 37 16 20 - - -
24/05:00pm - - - - - S 28 37 15 20 - - -
24/04:30pm - - - - - S 28 35 15 19 - - -
24/04:00pm - - - - - SSE 28 33 15 18 - - -
24/03:30pm - - - - - SSE 30 39 16 21 - - -
24/03:00pm - - - - - SSE 28 33 15 18 - - -
24/02:30pm - - - - - SSE 24 32 13 17 - - -
24/02:00pm - - - - - SSE 26 32 14 17 - - -
24/01:30pm - - - - - S 24 32 13 17 - - -
24/01:00pm - - - - - SSE 17 22 9 12 - - -
24/12:30pm - - - - - SSE 17 28 9 15 - - -
24/12:00pm - - - - - SSE 24 32 13 17 - - -
24/11:30am - - - - - SSE 22 28 12 15 - - -
24/11:00am - - - - - SSE 17 26 9 14 - - -
24/10:30am - - - - - S 22 28 12 15 - - -
24/10:00am - - - - - S 24 30 13 16 - - -
24/09:30am - - - - - SSE 26 32 14 17 - - -
24/09:00am - - - - - SSE 22 30 12 16 - - -
24/08:30am - - - - - SSE 17 26 9 14 - - -
24/08:00am - - - - - S 15 20 8 11 - - -
24/07:30am - - - - - SSE 13 17 7 9 - - -
24/07:00am - - - - - S 15 19 8 10 - - -
24/06:30am - - - - - S 11 15 6 8 - - -
24/06:00am - - - - - SSE 15 19 8 10 - - -
24/05:30am - - - - - SSE 15 19 8 10 - - -
24/05:00am - - - - - S 13 17 7 9 - - -
24/04:30am - - - - - S 13 15 7 8 - - -
24/04:00am - - - - - SSE 15 19 8 10 - - -
24/03:30am - - - - - SSE 13 15 7 8 - - -
24/03:00am - - - - - S 13 17 7 9 - - -
24/02:30am - - - - - S 15 17 8 9 - - -
24/02:00am - - - - - S 17 20 9 11 - - -
24/01:30am - - - - - S 20 26 11 14 - - -
24/01:00am - - - - - SSW 19 26 10 14 - - -
24/12:30am - - - - - S 13 17 7 9 - - -
24/12:00am - - - - - SSW 15 19 8 10 - - -
 
Date/Time
WST
Temp
°C
App
Temp
°C
Dew
Point
°C
Rel
Hum
%
Delta-T
°C
Wind Press
QNH
hPa
Press
MSL
hPa
Rain since
9am
mm
Dir  Spd
km/h
Gust
km/h
Spd
kts
Gust
kts
23/11:30pm - - - - - SSW 17 20 9 11 - - -
23/11:00pm - - - - - SSW 15 20 8 11 - - -
23/10:30pm - - - - - SSW 15 19 8 10 - - -
23/10:00pm - - - - - S 17 20 9 11 - - -
23/09:30pm - - - - - S 17 22 9 12 - - -
23/09:00pm - - - - - SSW 19 24 10 13 - - -
23/08:30pm - - - - - SSW 20 30 11 16 - - -
23/08:00pm - - - - - SSW 22 28 12 15 - - -
23/07:30pm - - - - - SSW 22 30 12 16 - - -
23/07:00pm - - - - - SSW 24 30 13 16 - - -
23/06:30pm - - - - - SSW 22 30 12 16 - - -
23/06:00pm - - - - - SSW 26 37 14 20 - - -
23/05:30pm - - - - - SSW 32 39 17 21 - - -
23/05:00pm - - - - - SSW 30 37 16 20 - - -
23/04:30pm - - - - - SSW 30 35 16 19 - - -
23/04:00pm - - - - - SSW 30 33 16 18 - - -
23/03:30pm - - - - - SSW 28 33 15 18 - - -
23/03:00pm - - - - - SSW 24 39 13 21 - - -
23/02:30pm - - - - - SW 32 37 17 20 - - -
23/02:00pm - - - - - SSW 32 41 17 22 - - -
23/01:30pm - - - - - SSW 24 37 13 20 - - -
23/01:13pm - - - - - SW 30 41 16 22 - - -
23/01:00pm - - - - - SW 28 33 15 18 - - -
23/12:30pm - - - - - SSW 35 43 19 23 - - -
23/12:25pm - - - - - SSW 32 43 17 23 - - -
23/12:00pm - - - - - SW 35 44 19 24 - - -
23/11:30am - - - - - WSW 32 39 17 21 - - -
23/11:00am - - - - - SSW 28 37 15 20 - - -
23/10:30am - - - - - SW 26 33 14 18 - - -
23/10:00am - - - - - SSW 26 35 14 19 - - -
23/09:30am - - - - - SW 26 33 14 18 - - -
23/09:00am - - - - - SW 20 26 11 14 - - -
23/08:30am - - - - - SW 24 32 13 17 - - -
23/08:00am - - - - - SW 26 30 14 16 - - -
23/07:30am - - - - - SW 20 30 11 16 - - -
23/07:00am - - - - - SW 22 30 12 16 - - -
23/06:30am - - - - - SW 20 28 11 15 - - -
23/06:00am - - - - - SW 22 28 12 15 - - -
23/05:30am - - - - - SW 24 30 13 16 - - -
23/05:00am - - - - - SW 20 24 11 13 - - -
23/04:30am - - - - - SW 19 22 10 12 - - -
23/04:00am - - - - - SW 19 24 10 13 - - -
23/03:30am - - - - - SW 20 24 11 13 - - -
23/03:00am - - - - - SW 24 28 13 15 - - -
23/02:30am - - - - - WSW 20 26 11 14 - - -
23/02:00am - - - - - SW 20 24 11 13 - - -
23/01:30am - - - - - WSW 20 28 11 15 - - -
23/01:00am - - - - - SW 17 24 9 13 - - -
23/12:30am - - - - - SW 13 17 7 9 - - -
23/12:00am - - - - - SW 15 19 8 10 - - -
 
Date/Time
WST
Temp
°C
App
Temp
°C
Dew
Point
°C
Rel
Hum
%
Delta-T
°C
Wind Press
QNH
hPa
Press
MSL
hPa
Rain since
9am
mm
Dir  Spd
km/h
Gust
km/h
Spd
kts
Gust
kts
22/11:30pm - - - - - SSW 20 28 11 15 - - -
22/11:00pm - - - - - SW 26 30 14 16 - - -
22/10:30pm - - - - - SSW 22 26 12 14 - - -
22/10:00pm - - - - - SSW 24 28 13 15 - - -
22/09:30pm - - - - - SSW 26 32 14 17 - - -
22/09:00pm - - - - - SSW 17 19 9 10 - - -
22/08:30pm - - - - - SW 17 20 9 11 - - -
22/08:00pm - - - - - SW 20 26 11 14 - - -
22/07:30pm - - - - - SW 9 13 5 7 - - -
22/07:00pm - - - - - SW 11 13 6 7 - - -
22/06:30pm - - - - - WSW 11 13 6 7 - - -
22/06:00pm - - - - - W 11 13 6 7 - - -
22/05:30pm - - - - - W 9 11 5 6 - - -
22/05:00pm - - - - - W 7 9 4 5 - - -
22/04:30pm - - - - - NNW 9 11 5 6 - - -
22/04:00pm - - - - - N 11 13 6 7 - - -
22/03:30pm - - - - - N 9 11 5 6 - - -
22/03:00pm - - - - - N 9 11 5 6 - - -
22/02:30pm - - - - - N 11 13 6 7 - - -
22/02:00pm - - - - - N 15 19 8 10 - - -
22/01:30pm - - - - - N 17 19 9 10 - - -
22/01:00pm - - - - - NNW 15 17 8 9 - - -
22/12:30pm - - - - - NNW 17 20 9 11 - - -
22/12:00pm - - - - - NNW 20 24 11 13 - - -
22/11:30am - - - - - N 19 24 10 13 - - -
22/11:00am - - - - - N 13 17 7 9 - - -
22/10:30am - - - - - NNW 11 13 6 7 - - -
22/10:00am - - - - - NNW 7 9 4 5 - - -

Other Formats:

Comma delimited format used in spreadsheet applications
http://www.bom.gov.au/fwo/IDW60801/IDW60801.95602.axf

JavaScript Object Notation format (JSON) in row-major order
http://www.bom.gov.au/fwo/IDW60801/IDW60801.95602.json